sensor_id;sensor_type;location;lat;lon;timestamp;P1;durP1;ratioP1;P2;durP2;ratioP2
61617;SDS011;47518;51.776;9.370;2022-12-24T00:01:53;8.07;;;3.10;;
61617;SDS011;47518;51.776;9.370;2022-12-24T00:04:18;8.10;;;3.38;;
61617;SDS011;47518;51.776;9.370;2022-12-24T00:06:44;10.20;;;3.53;;
61617;SDS011;47518;51.776;9.370;2022-12-24T00:09:09;8.55;;;3.30;;
61617;SDS011;47518;51.776;9.370;2022-12-24T00:11:35;7.30;;;3.42;;
61617;SDS011;47518;51.776;9.370;2022-12-24T00:14:00;7.78;;;3.42;;
61617;SDS011;47518;51.776;9.370;2022-12-24T00:16:25;8.73;;;3.58;;
61617;SDS011;47518;51.776;9.370;2022-12-24T00:18:54;12.95;;;3.85;;
61617;SDS011;47518;51.776;9.370;2022-12-24T00:21:19;6.72;;;3.90;;
61617;SDS011;47518;51.776;9.370;2022-12-24T00:23:45;6.30;;;3.78;;
61617;SDS011;47518;51.776;9.370;2022-12-24T00:26:11;7.80;;;4.00;;
61617;SDS011;47518;51.776;9.370;2022-12-24T00:28:37;7.53;;;4.00;;
61617;SDS011;47518;51.776;9.370;2022-12-24T00:31:07;7.53;;;4.22;;
61617;SDS011;47518;51.776;9.370;2022-12-24T00:33:33;10.32;;;4.28;;
61617;SDS011;47518;51.776;9.370;2022-12-24T00:35:59;6.75;;;3.80;;
61617;SDS011;47518;51.776;9.370;2022-12-24T00:38:24;8.32;;;3.70;;
61617;SDS011;47518;51.776;9.370;2022-12-24T00:40:49;9.00;;;4.18;;
61617;SDS011;47518;51.776;9.370;2022-12-24T00:43:15;7.18;;;3.60;;
61617;SDS011;47518;51.776;9.370;2022-12-24T00:45:40;6.75;;;3.53;;
61617;SDS011;47518;51.776;9.370;2022-12-24T00:48:05;12.48;;;3.80;;
61617;SDS011;47518;51.776;9.370;2022-12-24T00:50:31;5.47;;;3.40;;
61617;SDS011;47518;51.776;9.370;2022-12-24T00:52:56;5.63;;;3.40;;
61617;SDS011;47518;51.776;9.370;2022-12-24T00:55:21;8.05;;;3.85;;
61617;SDS011;47518;51.776;9.370;2022-12-24T00:57:46;7.10;;;3.30;;
61617;SDS011;47518;51.776;9.370;2022-12-24T01:00:12;7.65;;;3.67;;
61617;SDS011;47518;51.776;9.370;2022-12-24T01:02:39;7.43;;;3.47;;
61617;SDS011;47518;51.776;9.370;2022-12-24T01:05:05;5.35;;;3.75;;
61617;SDS011;47518;51.776;9.370;2022-12-24T01:07:39;6.40;;;3.88;;
61617;SDS011;47518;51.776;9.370;2022-12-24T01:10:08;5.05;;;3.40;;
61617;SDS011;47518;51.776;9.370;2022-12-24T01:12:34;5.90;;;3.40;;
61617;SDS011;47518;51.776;9.370;2022-12-24T01:15:00;7.72;;;3.60;;
61617;SDS011;47518;51.776;9.370;2022-12-24T01:17:25;8.10;;;4.00;;
61617;SDS011;47518;51.776;9.370;2022-12-24T01:19:51;6.15;;;3.95;;
61617;SDS011;47518;51.776;9.370;2022-12-24T01:22:16;6.25;;;4.10;;
61617;SDS011;47518;51.776;9.370;2022-12-24T01:24:41;6.00;;;4.07;;
61617;SDS011;47518;51.776;9.370;2022-12-24T01:27:07;9.77;;;4.57;;
61617;SDS011;47518;51.776;9.370;2022-12-24T01:29:33;8.65;;;4.38;;
61617;SDS011;47518;51.776;9.370;2022-12-24T01:31:58;7.65;;;4.70;;
61617;SDS011;47518;51.776;9.370;2022-12-24T01:34:23;7.35;;;4.15;;
61617;SDS011;47518;51.776;9.370;2022-12-24T01:36:49;7.32;;;4.03;;
61617;SDS011;47518;51.776;9.370;2022-12-24T01:39:14;6.10;;;3.65;;
61617;SDS011;47518;51.776;9.370;2022-12-24T01:41:39;8.50;;;4.40;;
61617;SDS011;47518;51.776;9.370;2022-12-24T01:44:27;8.13;;;4.00;;
61617;SDS011;47518;51.776;9.370;2022-12-24T01:47:13;5.82;;;3.90;;
61617;SDS011;47518;51.776;9.370;2022-12-24T01:49:44;6.95;;;4.05;;
61617;SDS011;47518;51.776;9.370;2022-12-24T01:52:16;6.00;;;3.97;;
61617;SDS011;47518;51.776;9.370;2022-12-24T01:54:47;5.82;;;3.90;;
61617;SDS011;47518;51.776;9.370;2022-12-24T01:57:20;5.30;;;3.80;;
61617;SDS011;47518;51.776;9.370;2022-12-24T01:59:51;7.30;;;3.97;;
61617;SDS011;47518;51.776;9.370;2022-12-24T02:04:50;8.38;;;3.95;;
61617;SDS011;47518;51.776;9.370;2022-12-24T02:07:28;7.10;;;4.10;;
61617;SDS011;47518;51.776;9.370;2022-12-24T02:09:55;11.45;;;4.45;;
61617;SDS011;47518;51.776;9.370;2022-12-24T02:12:21;8.43;;;4.35;;
61617;SDS011;47518;51.776;9.370;2022-12-24T02:14:48;8.93;;;4.78;;
61617;SDS011;47518;51.776;9.370;2022-12-24T02:30:21;15.77;;;4.30;;
61617;SDS011;47518;51.776;9.370;2022-12-24T02:32:57;15.10;;;5.13;;
61617;SDS011;47518;51.776;9.370;2022-12-24T02:46:24;18.33;;;6.28;;
61617;SDS011;47518;51.776;9.370;2022-12-24T02:48:51;15.45;;;6.30;;
61617;SDS011;47518;51.776;9.370;2022-12-24T02:51:21;16.48;;;6.72;;
61617;SDS011;47518;51.776;9.370;2022-12-24T02:53:48;14.57;;;6.55;;
61617;SDS011;47518;51.776;9.370;2022-12-24T02:56:19;16.35;;;6.68;;
61617;SDS011;47518;51.776;9.370;2022-12-24T03:09:33;16.13;;;6.70;;
61617;SDS011;47518;51.776;9.370;2022-12-24T03:22:40;15.48;;;6.28;;
61617;SDS011;47518;51.776;9.370;2022-12-24T03:25:05;15.45;;;6.10;;
61617;SDS011;47518;51.776;9.370;2022-12-24T03:27:31;19.45;;;6.38;;
61617;SDS011;47518;51.776;9.370;2022-12-24T03:29:58;19.15;;;5.70;;
61617;SDS011;47518;51.776;9.370;2022-12-24T03:32:24;20.52;;;5.82;;
61617;SDS011;47518;51.776;9.370;2022-12-24T03:34:52;23.10;;;6.13;;
61617;SDS011;47518;51.776;9.370;2022-12-24T03:37:18;19.27;;;5.63;;
61617;SDS011;47518;51.776;9.370;2022-12-24T03:39:43;21.38;;;5.43;;
61617;SDS011;47518;51.776;9.370;2022-12-24T03:42:09;16.00;;;5.05;;
61617;SDS011;47518;51.776;9.370;2022-12-24T03:44:34;15.93;;;4.95;;
61617;SDS011;47518;51.776;9.370;2022-12-24T03:46:59;18.77;;;5.47;;
61617;SDS011;47518;51.776;9.370;2022-12-24T03:49:25;16.90;;;5.32;;
61617;SDS011;47518;51.776;9.370;2022-12-24T03:51:50;21.65;;;5.80;;
61617;SDS011;47518;51.776;9.370;2022-12-24T03:54:15;15.43;;;5.75;;
61617;SDS011;47518;51.776;9.370;2022-12-24T03:56:41;18.63;;;5.65;;
61617;SDS011;47518;51.776;9.370;2022-12-24T03:59:06;17.88;;;5.68;;
61617;SDS011;47518;51.776;9.370;2022-12-24T04:01:31;21.02;;;6.35;;
61617;SDS011;47518;51.776;9.370;2022-12-24T04:03:57;20.38;;;6.22;;
61617;SDS011;47518;51.776;9.370;2022-12-24T04:06:22;17.20;;;5.82;;
61617;SDS011;47518;51.776;9.370;2022-12-24T04:08:47;15.63;;;5.78;;
61617;SDS011;47518;51.776;9.370;2022-12-24T04:11:14;18.63;;;5.70;;
61617;SDS011;47518;51.776;9.370;2022-12-24T04:13:40;18.80;;;5.50;;
61617;SDS011;47518;51.776;9.370;2022-12-24T04:16:06;22.38;;;6.20;;
61617;SDS011;47518;51.776;9.370;2022-12-24T04:18:34;22.23;;;5.45;;
61617;SDS011;47518;51.776;9.370;2022-12-24T04:21:00;16.05;;;5.45;;
61617;SDS011;47518;51.776;9.370;2022-12-24T04:23:25;21.80;;;5.82;;
61617;SDS011;47518;51.776;9.370;2022-12-24T04:25:51;18.70;;;6.30;;
61617;SDS011;47518;51.776;9.370;2022-12-24T04:28:16;19.58;;;5.68;;
61617;SDS011;47518;51.776;9.370;2022-12-24T04:30:42;18.73;;;5.60;;
61617;SDS011;47518;51.776;9.370;2022-12-24T04:33:08;20.85;;;6.10;;
61617;SDS011;47518;51.776;9.370;2022-12-24T04:35:38;17.90;;;5.65;;
61617;SDS011;47518;51.776;9.370;2022-12-24T04:38:05;18.63;;;5.60;;
61617;SDS011;47518;51.776;9.370;2022-12-24T04:40:31;25.45;;;5.53;;
61617;SDS011;47518;51.776;9.370;2022-12-24T04:42:56;21.85;;;5.15;;
61617;SDS011;47518;51.776;9.370;2022-12-24T04:45:21;21.83;;;5.68;;
61617;SDS011;47518;51.776;9.370;2022-12-24T04:47:47;19.77;;;5.35;;
61617;SDS011;47518;51.776;9.370;2022-12-24T04:50:12;22.88;;;5.60;;
61617;SDS011;47518;51.776;9.370;2022-12-24T04:52:37;17.92;;;5.75;;
61617;SDS011;47518;51.776;9.370;2022-12-24T04:55:03;19.98;;;5.28;;
61617;SDS011;47518;51.776;9.370;2022-12-24T04:57:30;21.05;;;5.88;;
61617;SDS011;47518;51.776;9.370;2022-12-24T04:59:57;21.05;;;6.07;;
61617;SDS011;47518;51.776;9.370;2022-12-24T05:02:23;19.80;;;6.28;;
61617;SDS011;47518;51.776;9.370;2022-12-24T05:04:48;20.63;;;5.50;;
61617;SDS011;47518;51.776;9.370;2022-12-24T05:07:13;20.83;;;5.45;;
61617;SDS011;47518;51.776;9.370;2022-12-24T05:09:39;17.60;;;5.70;;
61617;SDS011;47518;51.776;9.370;2022-12-24T05:35:32;19.08;;;5.70;;
61617;SDS011;47518;51.776;9.370;2022-12-24T05:37:57;19.77;;;5.55;;
61617;SDS011;47518;51.776;9.370;2022-12-24T05:40:24;24.25;;;5.22;;
61617;SDS011;47518;51.776;9.370;2022-12-24T05:42:49;15.32;;;5.20;;
61617;SDS011;47518;51.776;9.370;2022-12-24T05:45:15;22.17;;;5.50;;
61617;SDS011;47518;51.776;9.370;2022-12-24T05:47:40;23.70;;;5.22;;
61617;SDS011;47518;51.776;9.370;2022-12-24T05:50:05;19.00;;;4.75;;
61617;SDS011;47518;51.776;9.370;2022-12-24T05:52:31;19.70;;;5.10;;
61617;SDS011;47518;51.776;9.370;2022-12-24T05:54:56;18.67;;;4.97;;
61617;SDS011;47518;51.776;9.370;2022-12-24T05:57:22;17.45;;;5.10;;
61617;SDS011;47518;51.776;9.370;2022-12-24T05:59:47;20.83;;;5.55;;
61617;SDS011;47518;51.776;9.370;2022-12-24T06:02:13;17.40;;;5.05;;
61617;SDS011;47518;51.776;9.370;2022-12-24T06:04:38;17.48;;;5.38;;
61617;SDS011;47518;51.776;9.370;2022-12-24T06:07:04;19.73;;;5.47;;
61617;SDS011;47518;51.776;9.370;2022-12-24T06:09:29;14.75;;;5.70;;
61617;SDS011;47518;51.776;9.370;2022-12-24T06:11:54;25.25;;;5.90;;
61617;SDS011;47518;51.776;9.370;2022-12-24T06:14:20;19.35;;;6.15;;
61617;SDS011;47518;51.776;9.370;2022-12-24T06:16:45;21.88;;;5.93;;
61617;SDS011;47518;51.776;9.370;2022-12-24T06:19:11;17.98;;;5.32;;
61617;SDS011;47518;51.776;9.370;2022-12-24T06:21:36;17.45;;;5.75;;
61617;SDS011;47518;51.776;9.370;2022-12-24T06:24:02;15.73;;;5.40;;
61617;SDS011;47518;51.776;9.370;2022-12-24T06:26:27;19.15;;;5.72;;
61617;SDS011;47518;51.776;9.370;2022-12-24T06:28:52;18.88;;;5.82;;
61617;SDS011;47518;51.776;9.370;2022-12-24T06:31:19;24.02;;;6.32;;
61617;SDS011;47518;51.776;9.370;2022-12-24T06:33:46;24.00;;;5.72;;
61617;SDS011;47518;51.776;9.370;2022-12-24T06:36:14;19.38;;;5.30;;
61617;SDS011;47518;51.776;9.370;2022-12-24T06:38:43;14.60;;;5.28;;
61617;SDS011;47518;51.776;9.370;2022-12-24T06:41:09;21.45;;;5.55;;
61617;SDS011;47518;51.776;9.370;2022-12-24T06:43:35;21.45;;;5.88;;
61617;SDS011;47518;51.776;9.370;2022-12-24T06:46:00;19.73;;;5.60;;
61617;SDS011;47518;51.776;9.370;2022-12-24T06:48:27;18.92;;;5.80;;
61617;SDS011;47518;51.776;9.370;2022-12-24T06:50:53;26.00;;;6.40;;
61617;SDS011;47518;51.776;9.370;2022-12-24T06:53:18;18.40;;;5.63;;
61617;SDS011;47518;51.776;9.370;2022-12-24T06:55:44;23.15;;;6.28;;
61617;SDS011;47518;51.776;9.370;2022-12-24T06:58:09;22.80;;;6.47;;
61617;SDS011;47518;51.776;9.370;2022-12-24T07:00:35;17.83;;;6.32;;
61617;SDS011;47518;51.776;9.370;2022-12-24T07:03:01;19.25;;;5.90;;
61617;SDS011;47518;51.776;9.370;2022-12-24T07:05:26;29.35;;;6.72;;
61617;SDS011;47518;51.776;9.370;2022-12-24T07:07:52;28.00;;;7.13;;
61617;SDS011;47518;51.776;9.370;2022-12-24T07:10:18;23.27;;;6.70;;
61617;SDS011;47518;51.776;9.370;2022-12-24T07:12:44;18.77;;;6.30;;
61617;SDS011;47518;51.776;9.370;2022-12-24T07:15:10;25.00;;;7.60;;
61617;SDS011;47518;51.776;9.370;2022-12-24T07:17:37;19.33;;;6.82;;
61617;SDS011;47518;51.776;9.370;2022-12-24T07:20:03;22.35;;;6.80;;
61617;SDS011;47518;51.776;9.370;2022-12-24T07:22:29;19.08;;;6.60;;
61617;SDS011;47518;51.776;9.370;2022-12-24T07:24:55;20.98;;;6.18;;
61617;SDS011;47518;51.776;9.370;2022-12-24T07:27:20;16.85;;;6.70;;
61617;SDS011;47518;51.776;9.370;2022-12-24T07:29:45;22.90;;;6.70;;
61617;SDS011;47518;51.776;9.370;2022-12-24T07:32:11;19.45;;;6.97;;
61617;SDS011;47518;51.776;9.370;2022-12-24T07:34:36;23.15;;;6.90;;
61617;SDS011;47518;51.776;9.370;2022-12-24T07:37:03;17.52;;;6.50;;
61617;SDS011;47518;51.776;9.370;2022-12-24T07:39:29;22.00;;;7.45;;
61617;SDS011;47518;51.776;9.370;2022-12-24T07:41:55;16.50;;;6.07;;
61617;SDS011;47518;51.776;9.370;2022-12-24T07:44:20;20.42;;;6.75;;
61617;SDS011;47518;51.776;9.370;2022-12-24T07:46:45;20.15;;;6.50;;
61617;SDS011;47518;51.776;9.370;2022-12-24T07:49:10;23.02;;;7.05;;
61617;SDS011;47518;51.776;9.370;2022-12-24T07:51:36;17.35;;;6.70;;
61617;SDS011;47518;51.776;9.370;2022-12-24T07:54:01;23.45;;;7.18;;
61617;SDS011;47518;51.776;9.370;2022-12-24T07:56:29;21.13;;;6.38;;
61617;SDS011;47518;51.776;9.370;2022-12-24T07:58:55;20.65;;;6.90;;
61617;SDS011;47518;51.776;9.370;2022-12-24T08:01:20;20.20;;;6.40;;
61617;SDS011;47518;51.776;9.370;2022-12-24T08:03:45;17.15;;;7.50;;
61617;SDS011;47518;51.776;9.370;2022-12-24T08:06:11;20.67;;;6.72;;
61617;SDS011;47518;51.776;9.370;2022-12-24T08:08:36;21.80;;;7.60;;
61617;SDS011;47518;51.776;9.370;2022-12-24T08:11:02;16.77;;;6.70;;
61617;SDS011;47518;51.776;9.370;2022-12-24T08:13:29;22.77;;;7.10;;
61617;SDS011;47518;51.776;9.370;2022-12-24T08:15:56;19.13;;;6.75;;
61617;SDS011;47518;51.776;9.370;2022-12-24T08:18:21;21.15;;;8.13;;
61617;SDS011;47518;51.776;9.370;2022-12-24T08:20:47;15.55;;;6.35;;
61617;SDS011;47518;51.776;9.370;2022-12-24T08:23:12;18.55;;;6.97;;
61617;SDS011;47518;51.776;9.370;2022-12-24T08:25:41;20.67;;;8.05;;
61617;SDS011;47518;51.776;9.370;2022-12-24T08:28:07;18.50;;;7.28;;
61617;SDS011;47518;51.776;9.370;2022-12-24T08:30:33;18.90;;;7.30;;
61617;SDS011;47518;51.776;9.370;2022-12-24T08:32:58;16.58;;;7.03;;
61617;SDS011;47518;51.776;9.370;2022-12-24T08:35:24;17.08;;;6.25;;
61617;SDS011;47518;51.776;9.370;2022-12-24T08:37:49;14.35;;;5.93;;
61617;SDS011;47518;51.776;9.370;2022-12-24T08:40:14;17.02;;;6.43;;
61617;SDS011;47518;51.776;9.370;2022-12-24T08:42:40;15.65;;;6.55;;
61617;SDS011;47518;51.776;9.370;2022-12-24T08:45:05;16.38;;;6.38;;
61617;SDS011;47518;51.776;9.370;2022-12-24T08:47:31;16.60;;;6.53;;
61617;SDS011;47518;51.776;9.370;2022-12-24T08:49:56;18.77;;;6.40;;
61617;SDS011;47518;51.776;9.370;2022-12-24T08:52:22;18.27;;;6.13;;
61617;SDS011;47518;51.776;9.370;2022-12-24T08:54:47;19.50;;;6.97;;
61617;SDS011;47518;51.776;9.370;2022-12-24T08:57:12;19.33;;;6.90;;
61617;SDS011;47518;51.776;9.370;2022-12-24T08:59:38;19.77;;;6.05;;
61617;SDS011;47518;51.776;9.370;2022-12-24T09:02:03;17.85;;;6.82;;
61617;SDS011;47518;51.776;9.370;2022-12-24T09:04:29;16.35;;;6.00;;
61617;SDS011;47518;51.776;9.370;2022-12-24T09:06:54;16.83;;;5.55;;
61617;SDS011;47518;51.776;9.370;2022-12-24T09:09:19;12.50;;;5.80;;
61617;SDS011;47518;51.776;9.370;2022-12-24T09:11:45;15.90;;;5.88;;
61617;SDS011;47518;51.776;9.370;2022-12-24T09:14:10;16.13;;;5.60;;
61617;SDS011;47518;51.776;9.370;2022-12-24T09:16:36;15.15;;;5.85;;
61617;SDS011;47518;51.776;9.370;2022-12-24T09:19:01;18.08;;;5.97;;
61617;SDS011;47518;51.776;9.370;2022-12-24T09:21:27;16.90;;;5.93;;
61617;SDS011;47518;51.776;9.370;2022-12-24T09:23:52;18.98;;;7.88;;
61617;SDS011;47518;51.776;9.370;2022-12-24T09:39:24;14.27;;;5.05;;
61617;SDS011;47518;51.776;9.370;2022-12-24T09:44:48;15.30;;;4.57;;
61617;SDS011;47518;51.776;9.370;2022-12-24T09:47:28;10.48;;;4.07;;
61617;SDS011;47518;51.776;9.370;2022-12-24T09:50:21;18.02;;;4.13;;
61617;SDS011;47518;51.776;9.370;2022-12-24T10:06:39;12.95;;;4.40;;
61617;SDS011;47518;51.776;9.370;2022-12-24T10:28:29;12.45;;;4.00;;
61617;SDS011;47518;51.776;9.370;2022-12-24T10:31:02;15.25;;;4.55;;
61617;SDS011;47518;51.776;9.370;2022-12-24T10:33:32;14.57;;;4.90;;
61617;SDS011;47518;51.776;9.370;2022-12-24T10:36:02;17.98;;;4.82;;
61617;SDS011;47518;51.776;9.370;2022-12-24T10:38:29;18.00;;;5.60;;
61617;SDS011;47518;51.776;9.370;2022-12-24T10:40:56;19.08;;;5.65;;
61617;SDS011;47518;51.776;9.370;2022-12-24T10:43:24;15.95;;;5.40;;
61617;SDS011;47518;51.776;9.370;2022-12-24T10:45:54;14.65;;;5.63;;
61617;SDS011;47518;51.776;9.370;2022-12-24T10:48:28;15.00;;;5.22;;
61617;SDS011;47518;51.776;9.370;2022-12-24T10:51:05;15.98;;;5.50;;
61617;SDS011;47518;51.776;9.370;2022-12-24T10:53:57;20.83;;;5.55;;
61617;SDS011;47518;51.776;9.370;2022-12-24T10:56:30;15.13;;;5.65;;
61617;SDS011;47518;51.776;9.370;2022-12-24T10:58:56;16.77;;;5.68;;
61617;SDS011;47518;51.776;9.370;2022-12-24T11:01:41;18.65;;;6.07;;
61617;SDS011;47518;51.776;9.370;2022-12-24T11:04:13;14.20;;;5.43;;
61617;SDS011;47518;51.776;9.370;2022-12-24T11:06:58;19.58;;;5.97;;
61617;SDS011;47518;51.776;9.370;2022-12-24T11:09:41;14.15;;;5.47;;
61617;SDS011;47518;51.776;9.370;2022-12-24T11:12:21;11.80;;;5.05;;
61617;SDS011;47518;51.776;9.370;2022-12-24T11:14:50;14.90;;;5.45;;
61617;SDS011;47518;51.776;9.370;2022-12-24T11:17:26;13.13;;;5.32;;
61617;SDS011;47518;51.776;9.370;2022-12-24T11:19:51;17.10;;;5.22;;
61617;SDS011;47518;51.776;9.370;2022-12-24T11:22:22;17.50;;;5.43;;
61617;SDS011;47518;51.776;9.370;2022-12-24T11:24:56;15.00;;;5.20;;
61617;SDS011;47518;51.776;9.370;2022-12-24T11:40:39;13.98;;;4.78;;
61617;SDS011;47518;51.776;9.370;2022-12-24T11:43:10;14.60;;;5.45;;
61617;SDS011;47518;51.776;9.370;2022-12-24T11:45:39;16.52;;;5.10;;
61617;SDS011;47518;51.776;9.370;2022-12-24T11:48:30;12.07;;;4.95;;
61617;SDS011;47518;51.776;9.370;2022-12-24T11:50:59;13.93;;;4.82;;
61617;SDS011;47518;51.776;9.370;2022-12-24T11:53:43;13.55;;;4.60;;
61617;SDS011;47518;51.776;9.370;2022-12-24T11:56:14;16.00;;;4.75;;
61617;SDS011;47518;51.776;9.370;2022-12-24T11:58:51;16.17;;;5.00;;
61617;SDS011;47518;51.776;9.370;2022-12-24T12:01:23;13.73;;;4.82;;
61617;SDS011;47518;51.776;9.370;2022-12-24T12:06:41;19.10;;;5.10;;
61617;SDS011;47518;51.776;9.370;2022-12-24T12:09:11;22.45;;;5.43;;
61617;SDS011;47518;51.776;9.370;2022-12-24T12:11:42;13.93;;;4.97;;
61617;SDS011;47518;51.776;9.370;2022-12-24T12:14:13;15.25;;;5.53;;
61617;SDS011;47518;51.776;9.370;2022-12-24T12:16:47;16.80;;;5.57;;
61617;SDS011;47518;51.776;9.370;2022-12-24T12:19:37;15.40;;;4.93;;
61617;SDS011;47518;51.776;9.370;2022-12-24T12:22:09;14.60;;;5.45;;
61617;SDS011;47518;51.776;9.370;2022-12-24T12:24:45;15.88;;;5.13;;
61617;SDS011;47518;51.776;9.370;2022-12-24T12:27:18;13.88;;;5.78;;
61617;SDS011;47518;51.776;9.370;2022-12-24T12:29:54;20.15;;;5.93;;
61617;SDS011;47518;51.776;9.370;2022-12-24T12:32:26;13.55;;;5.20;;
61617;SDS011;47518;51.776;9.370;2022-12-24T12:35:04;14.05;;;5.72;;
61617;SDS011;47518;51.776;9.370;2022-12-24T12:37:42;17.50;;;6.03;;
61617;SDS011;47518;51.776;9.370;2022-12-24T12:40:13;15.32;;;6.03;;
61617;SDS011;47518;51.776;9.370;2022-12-24T12:42:40;15.85;;;5.72;;
61617;SDS011;47518;51.776;9.370;2022-12-24T12:47:54;20.27;;;5.90;;
61617;SDS011;47518;51.776;9.370;2022-12-24T12:50:39;18.30;;;6.30;;
61617;SDS011;47518;51.776;9.370;2022-12-24T12:53:16;17.48;;;6.13;;
61617;SDS011;47518;51.776;9.370;2022-12-24T12:58:36;17.33;;;5.95;;
61617;SDS011;47518;51.776;9.370;2022-12-24T13:01:26;19.65;;;8.15;;
61617;SDS011;47518;51.776;9.370;2022-12-24T13:04:09;18.65;;;6.32;;
61617;SDS011;47518;51.776;9.370;2022-12-24T13:20:30;16.52;;;5.40;;
61617;SDS011;47518;51.776;9.370;2022-12-24T13:36:06;19.23;;;6.15;;
61617;SDS011;47518;51.776;9.370;2022-12-24T13:38:39;12.82;;;5.82;;
61617;SDS011;47518;51.776;9.370;2022-12-24T13:44:13;16.50;;;5.70;;
61617;SDS011;47518;51.776;9.370;2022-12-24T13:49:31;16.73;;;6.35;;
61617;SDS011;47518;51.776;9.370;2022-12-24T13:52:15;13.73;;;5.95;;
61617;SDS011;47518;51.776;9.370;2022-12-24T13:57:45;15.77;;;5.70;;
61617;SDS011;47518;51.776;9.370;2022-12-24T14:16:23;18.13;;;6.43;;
61617;SDS011;47518;51.776;9.370;2022-12-24T14:21:42;15.30;;;6.10;;
61617;SDS011;47518;51.776;9.370;2022-12-24T14:24:26;16.27;;;5.97;;
61617;SDS011;47518;51.776;9.370;2022-12-24T14:26:58;22.52;;;6.20;;
61617;SDS011;47518;51.776;9.370;2022-12-24T14:29:31;16.73;;;7.05;;
61617;SDS011;47518;51.776;9.370;2022-12-24T14:32:00;15.25;;;6.20;;
61617;SDS011;47518;51.776;9.370;2022-12-24T14:34:29;21.38;;;6.45;;
61617;SDS011;47518;51.776;9.370;2022-12-24T14:36:55;19.35;;;6.28;;
61617;SDS011;47518;51.776;9.370;2022-12-24T14:39:25;17.33;;;6.05;;
61617;SDS011;47518;51.776;9.370;2022-12-24T14:41:59;19.58;;;5.95;;
61617;SDS011;47518;51.776;9.370;2022-12-24T14:44:39;16.05;;;6.50;;
61617;SDS011;47518;51.776;9.370;2022-12-24T14:50:14;18.30;;;5.85;;
61617;SDS011;47518;51.776;9.370;2022-12-24T14:56:14;22.85;;;6.63;;
61617;SDS011;47518;51.776;9.370;2022-12-24T14:58:41;13.50;;;5.53;;
61617;SDS011;47518;51.776;9.370;2022-12-24T15:01:24;14.57;;;5.68;;
61617;SDS011;47518;51.776;9.370;2022-12-24T15:17:17;19.67;;;6.22;;
61617;SDS011;47518;51.776;9.370;2022-12-24T15:19:42;16.92;;;6.07;;
61617;SDS011;47518;51.776;9.370;2022-12-24T15:22:17;20.98;;;6.47;;
61617;SDS011;47518;51.776;9.370;2022-12-24T15:24:51;19.77;;;6.30;;
61617;SDS011;47518;51.776;9.370;2022-12-24T15:27:19;16.25;;;6.10;;
61617;SDS011;47518;51.776;9.370;2022-12-24T15:29:47;20.67;;;7.00;;
61617;SDS011;47518;51.776;9.370;2022-12-24T15:32:15;25.52;;;9.13;;
61617;SDS011;47518;51.776;9.370;2022-12-24T15:34:43;51.72;;;20.95;;
61617;SDS011;47518;51.776;9.370;2022-12-24T15:37:15;24.92;;;8.48;;
61617;SDS011;47518;51.776;9.370;2022-12-24T15:40:01;27.67;;;8.85;;
61617;SDS011;47518;51.776;9.370;2022-12-24T15:42:46;25.65;;;8.98;;
61617;SDS011;47518;51.776;9.370;2022-12-24T15:45:15;23.58;;;8.85;;
61617;SDS011;47518;51.776;9.370;2022-12-24T15:47:47;35.13;;;12.05;;
61617;SDS011;47518;51.776;9.370;2022-12-24T15:50:15;26.60;;;10.05;;
61617;SDS011;47518;51.776;9.370;2022-12-24T15:53:03;31.08;;;11.45;;
61617;SDS011;47518;51.776;9.370;2022-12-24T15:55:38;21.92;;;9.38;;
61617;SDS011;47518;51.776;9.370;2022-12-24T16:06:37;21.27;;;8.20;;
61617;SDS011;47518;51.776;9.370;2022-12-24T16:09:36;20.20;;;8.25;;
61617;SDS011;47518;51.776;9.370;2022-12-24T16:12:11;22.10;;;8.38;;
61617;SDS011;47518;51.776;9.370;2022-12-24T16:14:39;21.67;;;9.35;;
61617;SDS011;47518;51.776;9.370;2022-12-24T16:17:14;30.58;;;10.77;;
61617;SDS011;47518;51.776;9.370;2022-12-24T16:19:45;19.40;;;8.95;;
61617;SDS011;47518;51.776;9.370;2022-12-24T16:22:15;21.02;;;8.98;;
61617;SDS011;47518;51.776;9.370;2022-12-24T16:25:14;23.75;;;8.45;;
61617;SDS011;47518;51.776;9.370;2022-12-24T16:27:58;25.10;;;9.20;;
61617;SDS011;47518;51.776;9.370;2022-12-24T16:30:23;23.98;;;9.77;;
61617;SDS011;47518;51.776;9.370;2022-12-24T16:32:49;21.98;;;10.48;;
61617;SDS011;47518;51.776;9.370;2022-12-24T16:35:19;27.63;;;13.15;;
61617;SDS011;47518;51.776;9.370;2022-12-24T16:37:48;38.85;;;17.55;;
61617;SDS011;47518;51.776;9.370;2022-12-24T16:40:14;40.78;;;17.50;;
61617;SDS011;47518;51.776;9.370;2022-12-24T16:42:40;41.75;;;16.15;;
61617;SDS011;47518;51.776;9.370;2022-12-24T16:45:26;33.05;;;15.18;;
61617;SDS011;47518;51.776;9.370;2022-12-24T16:47:53;30.63;;;13.48;;
61617;SDS011;47518;51.776;9.370;2022-12-24T16:50:21;29.73;;;12.70;;
61617;SDS011;47518;51.776;9.370;2022-12-24T16:52:46;31.73;;;10.70;;
61617;SDS011;47518;51.776;9.370;2022-12-24T16:55:12;22.65;;;9.52;;
61617;SDS011;47518;51.776;9.370;2022-12-24T16:57:38;22.95;;;8.90;;
61617;SDS011;47518;51.776;9.370;2022-12-24T17:00:06;26.88;;;9.57;;
61617;SDS011;47518;51.776;9.370;2022-12-24T17:02:40;21.02;;;9.20;;
61617;SDS011;47518;51.776;9.370;2022-12-24T17:05:06;19.58;;;8.75;;
61617;SDS011;47518;51.776;9.370;2022-12-24T17:07:31;20.60;;;8.27;;
61617;SDS011;47518;51.776;9.370;2022-12-24T17:09:57;19.58;;;8.38;;
61617;SDS011;47518;51.776;9.370;2022-12-24T17:12:22;31.52;;;14.68;;
61617;SDS011;47518;51.776;9.370;2022-12-24T17:14:47;24.83;;;8.73;;
61617;SDS011;47518;51.776;9.370;2022-12-24T17:17:18;20.17;;;8.18;;
61617;SDS011;47518;51.776;9.370;2022-12-24T17:19:47;15.18;;;6.90;;
61617;SDS011;47518;51.776;9.370;2022-12-24T17:22:12;24.60;;;8.60;;
61617;SDS011;47518;51.776;9.370;2022-12-24T17:24:37;18.27;;;7.72;;
61617;SDS011;47518;51.776;9.370;2022-12-24T17:27:03;18.77;;;8.52;;
61617;SDS011;47518;51.776;9.370;2022-12-24T17:29:28;17.60;;;7.07;;
61617;SDS011;47518;51.776;9.370;2022-12-24T17:31:53;18.55;;;8.00;;
61617;SDS011;47518;51.776;9.370;2022-12-24T17:34:19;19.40;;;8.38;;
61617;SDS011;47518;51.776;9.370;2022-12-24T17:36:44;19.02;;;8.80;;
61617;SDS011;47518;51.776;9.370;2022-12-24T17:39:09;20.42;;;8.23;;
61617;SDS011;47518;51.776;9.370;2022-12-24T17:41:34;20.25;;;9.18;;
61617;SDS011;47518;51.776;9.370;2022-12-24T17:44:00;15.73;;;8.20;;
61617;SDS011;47518;51.776;9.370;2022-12-24T17:46:25;21.00;;;7.90;;
61617;SDS011;47518;51.776;9.370;2022-12-24T17:48:50;21.10;;;8.38;;
61617;SDS011;47518;51.776;9.370;2022-12-24T17:51:17;15.20;;;7.13;;
61617;SDS011;47518;51.776;9.370;2022-12-24T17:53:45;17.52;;;7.80;;
61617;SDS011;47518;51.776;9.370;2022-12-24T17:56:11;17.35;;;7.68;;
61617;SDS011;47518;51.776;9.370;2022-12-24T17:58:38;21.27;;;7.60;;
61617;SDS011;47518;51.776;9.370;2022-12-24T18:01:04;21.02;;;7.82;;
61617;SDS011;47518;51.776;9.370;2022-12-24T18:03:30;21.08;;;7.90;;
61617;SDS011;47518;51.776;9.370;2022-12-24T18:06:03;19.27;;;8.60;;
61617;SDS011;47518;51.776;9.370;2022-12-24T18:08:30;24.85;;;10.18;;
61617;SDS011;47518;51.776;9.370;2022-12-24T18:10:56;20.10;;;9.38;;
61617;SDS011;47518;51.776;9.370;2022-12-24T18:13:21;24.48;;;8.25;;
61617;SDS011;47518;51.776;9.370;2022-12-24T18:15:47;22.23;;;9.35;;
61617;SDS011;47518;51.776;9.370;2022-12-24T18:18:13;16.77;;;8.68;;
61617;SDS011;47518;51.776;9.370;2022-12-24T18:20:38;31.35;;;14.98;;
61617;SDS011;47518;51.776;9.370;2022-12-24T18:23:04;35.83;;;18.27;;
61617;SDS011;47518;51.776;9.370;2022-12-24T18:25:29;27.05;;;15.57;;
61617;SDS011;47518;51.776;9.370;2022-12-24T18:27:57;30.52;;;16.25;;
61617;SDS011;47518;51.776;9.370;2022-12-24T18:30:23;26.08;;;14.95;;